Time;durP1;ratioP1;P1;durP2;ratioP2;P2;SDS_P1;SDS_P2;PMS_P1;PMS_P2;Temp;Humidity;BMP_temperature;BMP_pressure;BME280_temperature;BME280_humidity;BME280_pressure;Samples;Min_cycle;Max_cycle;Signal;HPM_P1;HPM_P2
2023/08/29 00:01:02;;;;;;;308.57;299.03;;;15.30;99.90;;;;;;5040033;28;20177;-88
2023/08/29 00:03:28;;;;;;;306.57;297.73;;;15.30;99.90;;;;;;5039544;28;20735;-89
2023/08/29 00:06:04;;;;;;;293.37;284.57;;;15.30;99.90;;;;;;5038933;28;20823;-89
2023/08/29 00:08:32;;;;;;;280.27;272.27;;;15.30;99.90;;;;;;5020499;28;20208;-89
2023/08/29 00:10:58;;;;;;;299.47;290.70;;;15.30;99.90;;;;;;5038365;28;20214;-89
2023/08/29 00:13:24;;;;;;;293.10;284.70;;;15.40;99.90;;;;;;5038567;28;20219;-90
2023/08/29 00:15:51;;;;;;;297.23;288.50;;;15.30;99.90;;;;;;5039219;28;20188;-89
2023/08/29 00:18:19;;;;;;;311.53;302.53;;;15.10;99.90;;;;;;5037919;28;20177;-89
2023/08/29 00:20:44;;;;;;;302.63;293.73;;;15.20;99.90;;;;;;5037351;28;20181;-90
2023/08/29 00:23:10;;;;;;;300.63;291.83;;;15.30;99.90;;;;;;5037486;28;20223;-90
2023/08/29 00:25:36;;;;;;;303.57;294.77;;;15.10;99.90;;;;;;5048982;28;20242;-88
2023/08/29 00:28:03;;;;;;;276.57;268.63;;;15.10;99.90;;;;;;5047946;28;20178;-89
2023/08/29 00:30:33;;;;;;;297.57;288.90;;;15.20;99.90;;;;;;5048979;28;20249;-88
2023/08/29 00:32:59;;;;;;;285.77;277.43;;;15.10;99.90;;;;;;5038629;28;20274;-89
2023/08/29 00:35:24;;;;;;;293.37;284.73;;;15.20;99.90;;;;;;5038230;28;20190;-90
2023/08/29 00:37:50;;;;;;;296.53;287.80;;;15.10;99.90;;;;;;5038218;28;20173;-89
2023/08/29 00:40:17;;;;;;;290.67;282.27;;;15.10;99.90;;;;;;5035598;28;20184;-89
2023/08/29 00:42:42;;;;;;;286.43;278.07;;;15.20;99.90;;;;;;5035295;28;20203;-90
2023/08/29 00:45:08;;;;;;;300.83;291.83;;;15.20;99.90;;;;;;5035243;28;20468;-88
2023/08/29 00:47:34;;;;;;;305.63;296.73;;;15.10;99.90;;;;;;5034635;28;20215;-89
2023/08/29 00:50:00;;;;;;;308.17;299.07;;;15.20;99.90;;;;;;5033793;28;20222;-89
2023/08/29 00:52:26;;;;;;;321.00;311.27;;;15.10;99.90;;;;;;5034989;28;20192;-90
2023/08/29 00:54:52;;;;;;;308.67;299.80;;;15.20;99.90;;;;;;5034748;28;20190;-88
2023/08/29 00:57:17;;;;;;;318.67;309.20;;;15.20;99.90;;;;;;5036576;28;20177;-90
2023/08/29 00:59:43;;;;;;;312.00;302.70;;;15.20;99.90;;;;;;5036131;28;20237;-89
2023/08/29 01:02:10;;;;;;;310.57;301.60;;;15.20;99.90;;;;;;5018445;28;20198;-89
2023/08/29 01:04:35;;;;;;;311.07;301.67;;;15.20;99.90;;;;;;5037957;28;20683;-90
2023/08/29 01:07:01;;;;;;;313.90;304.67;;;15.10;99.90;;;;;;5036808;28;20192;-88
2023/08/29 01:09:27;;;;;;;306.43;297.60;;;15.00;99.90;;;;;;5014888;28;20201;-89
2023/08/29 01:12:09;;;;;;;294.40;285.90;;;15.10;99.90;;;;;;5016224;28;20178;-89
2023/08/29 01:14:42;;;;;;;287.70;279.50;;;15.10;99.90;;;;;;5015264;28;20212;-88
2023/08/29 01:17:19;;;;;;;282.27;274.17;;;15.20;99.90;;;;;;5017548;28;20184;-89
2023/08/29 01:19:52;;;;;;;287.77;279.53;;;15.20;99.90;;;;;;5014549;28;20193;-89
2023/08/29 01:22:40;;;;;;;292.37;283.90;;;15.20;99.90;;;;;;5017603;28;20197;-90
2023/08/29 01:25:32;;;;;;;283.37;275.20;;;15.30;99.90;;;;;;5016515;28;20185;-89
2023/08/29 01:28:00;;;;;;;280.93;272.77;;;15.20;99.90;;;;;;5015899;28;20664;-89
2023/08/29 01:30:27;;;;;;;299.83;291.20;;;15.30;99.90;;;;;;5013967;28;20242;-90
2023/08/29 01:32:53;;;;;;;301.67;292.40;;;15.20;99.90;;;;;;5016419;28;20295;-89
2023/08/29 01:35:19;;;;;;;307.50;298.60;;;15.10;99.90;;;;;;5014692;28;20185;-89
2023/08/29 01:37:44;;;;;;;307.53;298.33;;;15.20;99.90;;;;;;5015325;28;20237;-89
2023/08/29 01:40:10;;;;;;;304.23;295.43;;;15.30;99.90;;;;;;5016328;28;20212;-89
2023/08/29 01:42:36;;;;;;;315.93;306.77;;;15.30;99.90;;;;;;5016059;28;20186;-90
2023/08/29 01:45:03;;;;;;;311.10;302.07;;;15.20;99.90;;;;;;5034073;28;20301;-90
2023/08/29 01:47:29;;;;;;;324.33;314.90;;;15.30;99.90;;;;;;5035065;28;20196;-89
2023/08/29 01:49:55;;;;;;;313.67;304.60;;;15.20;99.90;;;;;;5034812;28;20215;-88
2023/08/29 01:52:20;;;;;;;324.97;315.43;;;15.20;99.90;;;;;;5035632;28;20185;-90
2023/08/29 01:54:46;;;;;;;321.83;312.47;;;15.30;99.90;;;;;;5036683;28;20202;-89
2023/08/29 01:57:14;;;;;;;328.50;318.97;;;15.20;99.90;;;;;;5037872;28;20180;-90
2023/08/29 01:59:41;;;;;;;321.73;312.13;;;15.20;99.90;;;;;;5037457;28;20631;-88
2023/08/29 02:02:07;;;;;;;336.20;326.23;;;15.30;99.90;;;;;;5037308;28;20187;-90
2023/08/29 02:04:33;;;;;;;320.77;311.23;;;15.20;99.90;;;;;;5037387;28;20205;-89
2023/08/29 02:06:59;;;;;;;331.13;321.43;;;15.30;99.90;;;;;;5041741;28;20193;-90
2023/08/29 02:09:25;;;;;;;323.97;314.60;;;15.10;99.90;;;;;;5040786;28;20276;-90
2023/08/29 02:11:50;;;;;;;317.80;308.40;;;15.10;99.90;;;;;;5040519;28;20207;-90
2023/08/29 02:14:16;;;;;;;314.47;305.23;;;15.00;99.90;;;;;;5040773;28;20214;-89
2023/08/29 02:16:42;;;;;;;305.97;296.77;;;15.10;99.90;;;;;;5040310;28;20181;-89
2023/08/29 02:19:08;;;;;;;312.77;303.77;;;15.10;99.90;;;;;;5040162;28;20213;-90
2023/08/29 02:21:33;;;;;;;309.77;300.73;;;15.10;99.90;;;;;;5022534;28;20212;-90
2023/08/29 02:24:01;;;;;;;310.20;301.23;;;15.10;99.90;;;;;;5040768;28;20205;-90
2023/08/29 02:26:26;;;;;;;304.90;296.03;;;15.10;99.90;;;;;;5040691;28;20194;-89
2023/08/29 02:28:55;;;;;;;309.03;300.03;;;15.20;99.90;;;;;;5039695;28;20169;-89
2023/08/29 02:31:21;;;;;;;319.30;310.07;;;15.10;99.90;;;;;;5040847;28;20179;-89
2023/08/29 02:33:47;;;;;;;315.63;306.27;;;15.10;99.90;;;;;;5039004;28;20285;-90
2023/08/29 02:36:12;;;;;;;319.83;310.47;;;14.90;99.90;;;;;;5040145;28;20251;-89
2023/08/29 02:38:38;;;;;;;317.33;308.10;;;15.00;99.90;;;;;;5041284;28;20183;-89
2023/08/29 02:41:06;;;;;;;321.30;311.93;;;14.90;99.90;;;;;;5038642;28;20661;-89
2023/08/29 02:43:31;;;;;;;318.50;308.60;;;15.00;99.90;;;;;;5039651;28;20216;-89
2023/08/29 02:45:57;;;;;;;325.17;315.60;;;14.90;99.90;;;;;;5022195;28;20188;-89
2023/08/29 02:48:23;;;;;;;351.37;340.60;;;15.00;99.90;;;;;;5040930;28;20600;-89
2023/08/29 02:50:50;;;;;;;358.77;347.93;;;15.00;99.90;;;;;;5042233;28;20214;-89
2023/08/29 02:53:19;;;;;;;362.03;351.20;;;14.90;99.90;;;;;;5038839;28;20196;-89
2023/08/29 02:55:45;;;;;;;364.43;353.20;;;14.90;99.90;;;;;;5039529;28;20395;-89
2023/08/29 02:58:11;;;;;;;366.77;355.17;;;14.80;99.90;;;;;;5040193;28;20248;-88
2023/08/29 03:00:37;;;;;;;360.03;349.07;;;14.90;99.90;;;;;;5039482;28;20240;-89
2023/08/29 03:03:04;;;;;;;357.00;346.40;;;14.90;99.90;;;;;;5038346;28;20757;-90
2023/08/29 03:05:30;;;;;;;353.73;343.07;;;14.90;99.90;;;;;;5038687;28;20203;-88
2023/08/29 03:07:57;;;;;;;369.07;358.07;;;14.80;99.90;;;;;;5039550;28;20210;-90
2023/08/29 03:10:23;;;;;;;382.93;371.27;;;14.90;99.90;;;;;;5034917;28;20215;-91
2023/08/29 03:12:52;;;;;;;382.13;370.43;;;14.90;99.90;;;;;;5039194;28;20240;-88
2023/08/29 03:15:18;;;;;;;375.00;363.70;;;14.90;99.90;;;;;;5039257;28;20182;-89
2023/08/29 03:17:44;;;;;;;386.97;375.10;;;14.90;99.90;;;;;;5036537;28;20178;-90
2023/08/29 03:20:11;;;;;;;370.10;358.90;;;14.90;99.90;;;;;;5038434;28;20199;-88
2023/08/29 03:22:37;;;;;;;379.77;368.43;;;14.90;99.90;;;;;;5038191;28;20188;-89
2023/08/29 03:25:03;;;;;;;373.17;361.63;;;14.90;99.90;;;;;;5039591;28;20204;-89
2023/08/29 03:27:29;;;;;;;372.13;360.97;;;14.90;99.90;;;;;;5038762;28;20215;-90
2023/08/29 03:29:54;;;;;;;373.20;362.03;;;14.80;99.90;;;;;;5038260;28;20205;-89
2023/08/29 03:32:20;;;;;;;367.03;355.93;;;14.90;99.90;;;;;;5036649;28;20175;-90
2023/08/29 03:34:50;;;;;;;374.77;363.53;;;14.90;99.90;;;;;;5037814;28;20404;-89
2023/08/29 03:37:16;;;;;;;371.53;360.30;;;14.90;99.90;;;;;;5036823;28;20188;-90
2023/08/29 03:39:42;;;;;;;372.73;361.63;;;14.90;99.90;;;;;;5028684;28;20195;-88
2023/08/29 03:42:08;;;;;;;378.70;367.27;;;14.80;99.90;;;;;;5015002;28;20192;-90
2023/08/29 03:44:33;;;;;;;380.27;368.87;;;14.80;99.90;;;;;;5016266;28;20215;-91
2023/08/29 03:46:59;;;;;;;383.87;372.30;;;14.80;99.90;;;;;;5019304;28;20194;-88
2023/08/29 03:49:25;;;;;;;413.13;400.47;;;14.90;99.90;;;;;;5017252;28;20647;-89
2023/08/29 03:51:50;;;;;;;405.47;392.93;;;14.90;99.90;;;;;;5018494;28;20189;-89
2023/08/29 03:54:16;;;;;;;407.13;394.60;;;15.00;99.90;;;;;;5018604;28;20201;-91
2023/08/29 03:56:43;;;;;;;411.67;398.90;;;14.90;99.90;;;;;;5018388;28;20194;-89
2023/08/29 03:59:09;;;;;;;418.43;405.37;;;14.90;99.90;;;;;;5018674;28;20185;-89
2023/08/29 04:01:35;;;;;;;421.43;408.13;;;14.90;99.90;;;;;;5018345;28;20211;-89
2023/08/29 04:04:02;;;;;;;402.80;390.57;;;14.90;99.90;;;;;;5017944;28;20538;-90
2023/08/29 04:06:28;;;;;;;397.97;385.90;;;14.90;99.90;;;;;;5018021;28;20194;-88
2023/08/29 04:08:54;;;;;;;390.10;378.20;;;15.00;99.90;;;;;;5023714;28;20179;-90
2023/08/29 04:11:20;;;;;;;413.47;400.70;;;15.00;99.90;;;;;;5027002;28;20205;-88
2023/08/29 04:13:46;;;;;;;400.80;388.57;;;14.90;99.90;;;;;;5029910;28;20209;-92
2023/08/29 04:16:11;;;;;;;402.43;390.20;;;14.90;99.90;;;;;;5029327;28;20181;-89
2023/08/29 04:18:37;;;;;;;414.90;401.93;;;15.00;99.90;;;;;;5024259;28;20188;-90
2023/08/29 04:21:03;;;;;;;423.00;409.90;;;14.90;99.90;;;;;;5022150;28;20193;-89
2023/08/29 04:23:28;;;;;;;399.37;387.33;;;14.80;99.90;;;;;;5021872;28;20201;-87
2023/08/29 04:25:59;;;;;;;418.00;405.00;;;14.80;99.90;;;;;;5021594;28;20212;-90
2023/08/29 04:28:25;;;;;;;404.13;391.63;;;14.80;99.90;;;;;;5017705;28;20261;-88
2023/08/29 04:30:51;;;;;;;415.80;403.03;;;14.80;99.90;;;;;;5018345;28;20705;-89
2023/08/29 04:33:16;;;;;;;384.57;372.60;;;14.70;99.90;;;;;;5032604;28;20228;-88
2023/08/29 04:35:42;;;;;;;385.07;373.10;;;14.60;99.90;;;;;;5035232;28;20344;-89
2023/08/29 04:38:08;;;;;;;357.67;346.97;;;14.60;99.90;;;;;;5017754;28;20232;-90
2023/08/29 04:40:35;;;;;;;353.93;342.93;;;14.60;99.90;;;;;;5017947;28;20176;-89
2023/08/29 04:43:01;;;;;;;346.20;335.83;;;14.50;99.90;;;;;;5017530;28;20660;-89
2023/08/29 04:45:27;;;;;;;349.53;338.90;;;14.50;99.90;;;;;;5020878;28;20213;-90
2023/08/29 04:47:52;;;;;;;354.23;343.83;;;14.50;99.90;;;;;;5019895;28;20188;-90
2023/08/29 04:50:20;;;;;;;360.90;350.00;;;14.50;99.90;;;;;;5018120;28;20212;-90
2023/08/29 04:52:46;;;;;;;365.90;354.77;;;14.50;99.90;;;;;;5019780;28;20199;-89
2023/08/29 04:55:11;;;;;;;379.77;368.47;;;14.60;99.90;;;;;;5018642;28;20178;-90
2023/08/29 04:57:37;;;;;;;370.37;359.23;;;14.60;99.90;;;;;;5019042;28;20216;-90
2023/08/29 05:00:05;;;;;;;373.20;362.13;;;14.50;99.90;;;;;;5017998;28;20221;-90
2023/08/29 05:02:31;;;;;;;375.37;364.20;;;14.50;99.90;;;;;;5000398;28;20186;-89
2023/08/29 05:04:57;;;;;;;389.57;377.63;;;14.50;99.90;;;;;;5016911;28;20309;-89
2023/08/29 05:07:23;;;;;;;377.17;365.70;;;14.60;99.90;;;;;;5017438;28;20701;-89
2023/08/29 05:09:48;;;;;;;369.00;357.93;;;14.50;99.90;;;;;;5025391;28;20239;-90
2023/08/29 05:12:15;;;;;;;358.10;347.30;;;14.50;99.90;;;;;;5036673;28;20181;-89
2023/08/29 05:14:41;;;;;;;358.43;347.60;;;14.40;99.90;;;;;;5036193;28;20810;-90
2023/08/29 05:17:09;;;;;;;341.70;331.30;;;14.40;99.90;;;;;;5035901;28;20208;-89
2023/08/29 05:19:35;;;;;;;377.60;366.20;;;14.50;99.90;;;;;;5034925;28;20441;-89
2023/08/29 05:22:01;;;;;;;385.77;374.00;;;14.60;99.90;;;;;;5036261;28;20185;-88
2023/08/29 05:24:27;;;;;;;385.07;373.30;;;14.60;99.90;;;;;;5034685;28;20256;-89
2023/08/29 05:26:52;;;;;;;335.57;325.63;;;14.60;99.90;;;;;;5037058;28;20188;-89
2023/08/29 05:29:18;;;;;;;305.33;296.23;;;14.50;99.90;;;;;;5034073;28;20526;-89
2023/08/29 05:31:44;;;;;;;297.47;288.40;;;14.30;99.90;;;;;;5047461;28;20176;-90
2023/08/29 05:34:10;;;;;;;304.50;295.13;;;14.40;99.90;;;;;;5033929;28;20220;-88
2023/08/29 05:36:35;;;;;;;297.13;288.37;;;14.50;99.90;;;;;;5016835;28;20213;-88
2023/08/29 05:39:01;;;;;;;317.50;308.13;;;14.50;99.90;;;;;;5029632;28;20184;-90
2023/08/29 05:41:28;;;;;;;303.57;294.33;;;14.60;99.90;;;;;;5023244;28;20530;-90
2023/08/29 05:43:54;;;;;;;300.17;290.73;;;14.50;99.90;;;;;;5020148;28;20213;-90
2023/08/29 05:46:20;;;;;;;300.13;290.97;;;14.50;99.90;;;;;;5020665;28;20184;-90
2023/08/29 05:48:46;;;;;;;314.83;305.50;;;14.60;99.90;;;;;;5020412;28;20181;-88
2023/08/29 05:51:11;;;;;;;342.63;332.53;;;14.60;99.90;;;;;;5020504;28;20248;-89
2023/08/29 05:53:37;;;;;;;351.37;340.57;;;14.80;99.90;;;;;;5019051;28;20272;-90
2023/08/29 05:56:03;;;;;;;375.93;364.63;;;14.80;99.90;;;;;;5022960;28;20169;-90
2023/08/29 05:58:29;;;;;;;368.07;356.90;;;14.90;99.90;;;;;;5018843;28;20792;-90
2023/08/29 06:00:55;;;;;;;315.83;306.47;;;14.90;99.90;;;;;;5022320;28;20187;-88
2023/08/29 06:03:21;;;;;;;304.57;295.67;;;14.70;99.90;;;;;;5019799;28;20235;-90
2023/08/29 06:05:50;;;;;;;340.87;330.77;;;14.70;99.90;;;;;;5022901;28;20201;-90
2023/08/29 06:08:17;;;;;;;351.33;340.93;;;14.90;99.90;;;;;;5021714;28;20192;-89
2023/08/29 06:10:43;;;;;;;359.17;348.17;;;15.00;99.90;;;;;;5039458;28;20205;-89
2023/08/29 06:13:09;;;;;;;362.53;351.73;;;15.10;99.90;;;;;;5039776;28;20201;-90
2023/08/29 06:15:35;;;;;;;364.73;353.67;;;15.10;99.90;;;;;;5021658;28;20183;-88
2023/08/29 06:18:01;;;;;;;354.57;343.87;;;15.10;99.90;;;;;;5039223;28;20192;-89
2023/08/29 06:20:27;;;;;;;438.90;424.30;;;15.00;99.90;;;;;;5038115;28;20189;-92
2023/08/29 06:22:56;;;;;;;525.67;507.77;;;15.00;99.90;;;;;;5038058;28;20183;-88
2023/08/29 06:25:24;;;;;;;308.07;298.93;;;15.00;99.90;;;;;;5037078;28;20188;-90
2023/08/29 06:27:49;;;;;;;289.97;281.47;;;14.90;99.90;;;;;;5037631;28;20185;-90
2023/08/29 06:30:16;;;;;;;277.37;269.27;;;14.70;99.90;;;;;;5036690;28;20212;-88
2023/08/29 06:32:42;;;;;;;292.17;283.43;;;14.80;99.90;;;;;;5036064;28;20185;-88
2023/08/29 06:35:09;;;;;;;279.97;271.67;;;14.80;99.90;;;;;;5036484;28;20196;-89
2023/08/29 06:37:36;;;;;;;272.23;264.20;;;14.90;99.90;;;;;;5039118;28;20173;-89
2023/08/29 06:40:04;;;;;;;291.47;282.57;;;14.80;99.90;;;;;;5038321;28;20680;-89
2023/08/29 06:42:31;;;;;;;313.00;303.60;;;15.00;99.90;;;;;;5037899;28;20555;-89
2023/08/29 06:44:58;;;;;;;307.93;298.73;;;15.20;99.90;;;;;;5038354;28;20220;-90
2023/08/29 06:47:24;;;;;;;281.97;273.53;;;15.20;99.90;;;;;;5038358;28;20264;-90
2023/08/29 06:49:52;;;;;;;256.53;249.03;;;14.90;99.90;;;;;;5038100;28;20591;-89
2023/08/29 06:52:18;;;;;;;249.50;242.13;;;14.90;99.90;;;;;;5038786;28;20170;-90
2023/08/29 06:54:45;;;;;;;270.83;262.60;;;14.90;99.90;;;;;;5039328;28;20425;-89
2023/08/29 06:57:10;;;;;;;309.73;300.63;;;15.20;99.90;;;;;;5038947;28;20169;-90
2023/08/29 06:59:36;;;;;;;283.47;275.00;;;15.30;99.90;;;;;;5039456;28;20196;-91
2023/08/29 07:02:02;;;;;;;259.30;251.70;;;14.90;99.90;;;;;;5039782;28;20182;-88
2023/08/29 07:04:27;;;;;;;256.63;248.93;;;15.00;99.90;;;;;;5039047;28;20235;-89
2023/08/29 07:06:53;;;;;;;261.50;253.80;;;15.10;99.90;;;;;;5039752;28;20179;-89
2023/08/29 07:09:19;;;;;;;277.77;269.47;;;15.20;99.90;;;;;;5038545;28;20177;-90
2023/08/29 07:11:44;;;;;;;244.53;237.37;;;15.10;99.90;;;;;;5037943;28;20192;-88
2023/08/29 07:14:10;;;;;;;237.87;230.70;;;15.00;99.90;;;;;;5039001;28;20206;-88
2023/08/29 07:16:36;;;;;;;275.77;267.60;;;15.20;99.90;;;;;;5038169;28;20188;-90
2023/08/29 07:19:01;;;;;;;262.73;254.90;;;15.20;99.90;;;;;;5037535;28;20633;-89
2023/08/29 07:21:28;;;;;;;252.77;245.37;;;15.30;99.90;;;;;;5038531;28;20189;-90
2023/08/29 07:23:54;;;;;;;252.83;245.40;;;15.20;99.90;;;;;;5040288;28;20235;-89
2023/08/29 07:26:20;;;;;;;264.17;256.17;;;15.40;99.90;;;;;;5040730;28;20187;-90
2023/08/29 07:28:46;;;;;;;268.47;260.67;;;15.30;99.90;;;;;;5039217;28;20186;-90
2023/08/29 07:31:11;;;;;;;291.33;282.63;;;15.50;99.90;;;;;;5038417;28;20233;-90
2023/08/29 07:33:37;;;;;;;295.70;286.97;;;15.60;99.90;;;;;;5038528;28;20216;-89
2023/08/29 07:36:04;;;;;;;293.30;284.60;;;15.50;99.90;;;;;;5038569;28;20177;-90
2023/08/29 07:38:31;;;;;;;302.33;293.23;;;15.50;99.90;;;;;;5038098;28;20181;-89
2023/08/29 07:40:57;;;;;;;301.07;292.17;;;15.70;99.90;;;;;;5037868;28;20188;-90
2023/08/29 07:43:22;;;;;;;283.93;275.17;;;15.70;99.90;;;;;;5038413;28;20199;-91
2023/08/29 07:45:52;;;;;;;321.73;312.20;;;15.80;99.90;;;;;;5037483;28;20214;-90
2023/08/29 07:48:18;;;;;;;279.93;271.63;;;15.60;99.90;;;;;;5037401;28;20675;-91
2023/08/29 07:50:44;;;;;;;294.87;286.13;;;15.70;99.90;;;;;;5037755;28;20209;-90
2023/08/29 07:53:10;;;;;;;322.70;313.07;;;15.90;99.90;;;;;;5037279;28;20507;-88
2023/08/29 07:55:36;;;;;;;368.90;357.97;;;16.20;99.90;;;;;;5037250;28;20267;-88
2023/08/29 07:58:02;;;;;;;363.63;352.50;;;16.30;99.90;;;;;;5037012;28;20205;-90
2023/08/29 08:00:29;;;;;;;379.10;367.67;;;16.30;99.90;;;;;;5038092;28;20184;-91
2023/08/29 08:02:55;;;;;;;361.73;350.77;;;16.30;99.90;;;;;;5036652;28;20268;-90
2023/08/29 08:05:20;;;;;;;370.97;359.17;;;16.00;99.90;;;;;;5038367;28;20200;-90
2023/08/29 08:07:46;;;;;;;402.90;390.73;;;16.30;99.90;;;;;;5037310;28;20346;-89
2023/08/29 08:10:14;;;;;;;402.40;390.17;;;16.20;99.90;;;;;;5036920;28;20227;-90
2023/08/29 08:12:40;;;;;;;418.60;405.90;;;16.40;99.90;;;;;;5037083;28;20192;-89
2023/08/29 08:15:08;;;;;;;372.53;361.43;;;16.20;99.90;;;;;;5035379;28;20182;-89
2023/08/29 08:17:34;;;;;;;373.00;361.37;;;15.90;99.90;;;;;;5034648;28;20273;-91
2023/08/29 08:19:59;;;;;;;387.20;375.63;;;16.10;99.90;;;;;;5033718;28;20188;-89
2023/08/29 08:22:25;;;;;;;354.63;343.93;;;16.40;99.90;;;;;;5018563;28;20495;-89
2023/08/29 08:24:51;;;;;;;408.03;395.63;;;16.20;99.90;;;;;;5016642;28;20228;-90
2023/08/29 08:27:18;;;;;;;420.20;407.33;;;16.40;99.90;;;;;;5016874;28;20633;-89
2023/08/29 08:29:44;;;;;;;436.77;423.13;;;16.40;99.90;;;;;;5016285;28;20452;-89
2023/08/29 08:32:10;;;;;;;451.63;437.63;;;16.50;99.90;;;;;;5016193;28;20183;-89
2023/08/29 08:34:36;;;;;;;399.80;387.67;;;16.70;99.90;;;;;;5016986;28;20222;-89
2023/08/29 08:37:01;;;;;;;431.20;417.53;;;16.90;99.90;;;;;;5016915;28;20305;-90
2023/08/29 08:39:27;;;;;;;444.63;431.03;;;16.70;99.90;;;;;;5016407;28;20247;-90
2023/08/29 08:41:53;;;;;;;439.27;425.87;;;16.80;99.90;;;;;;5016259;28;20205;-88
2023/08/29 08:44:21;;;;;;;422.77;409.60;;;16.80;99.90;;;;;;5016434;28;20213;-89
2023/08/29 08:46:47;;;;;;;421.00;407.77;;;16.80;99.90;;;;;;5016352;28;20208;-89
2023/08/29 08:49:13;;;;;;;414.40;401.83;;;16.90;99.90;;;;;;5015763;28;20725;-88
2023/08/29 08:51:40;;;;;;;407.83;395.33;;;17.00;99.90;;;;;;5016265;28;20177;-89
2023/08/29 08:54:07;;;;;;;435.80;422.50;;;17.00;99.90;;;;;;5016104;28;20194;-90
2023/08/29 08:56:38;;;;;;;426.50;413.10;;;17.10;99.90;;;;;;5017087;28;20173;-90
2023/08/29 08:59:04;;;;;;;400.97;388.90;;;17.00;99.90;;;;;;5016185;28;20242;-90
2023/08/29 09:01:30;;;;;;;426.40;413.33;;;17.10;99.90;;;;;;5015343;28;20214;-89
2023/08/29 09:03:56;;;;;;;412.20;399.23;;;17.10;99.90;;;;;;5016139;28;20201;-90
2023/08/29 09:06:21;;;;;;;396.33;384.40;;;17.20;99.90;;;;;;5016168;28;20183;-89
2023/08/29 09:08:47;;;;;;;440.33;426.77;;;17.40;99.90;;;;;;5022314;28;20177;-89
2023/08/29 09:11:17;;;;;;;445.93;431.90;;;17.40;99.90;;;;;;5034924;28;20269;-90
2023/08/29 09:13:49;;;;;;;433.77;420.37;;;17.20;99.90;;;;;;5015562;28;20420;-90
2023/08/29 09:16:21;;;;;;;402.50;390.33;;;17.30;99.90;;;;;;5026063;28;20182;-89
2023/08/29 09:18:50;;;;;;;441.37;427.50;;;17.50;99.40;;;;;;5033027;28;20220;-91
2023/08/29 09:21:17;;;;;;;438.40;424.80;;;17.40;99.90;;;;;;5033628;28;20208;-89
2023/08/29 09:23:43;;;;;;;443.13;429.40;;;17.20;99.90;;;;;;5033765;28;20219;-89
2023/08/29 09:26:11;;;;;;;447.93;434.00;;;17.10;99.90;;;;;;5034164;28;20186;-90
2023/08/29 09:28:38;;;;;;;433.97;420.47;;;17.00;99.90;;;;;;5036752;28;20227;-90
2023/08/29 09:31:07;;;;;;;431.10;417.70;;;16.80;99.90;;;;;;5036103;28;20231;-90
2023/08/29 09:33:34;;;;;;;443.07;429.23;;;16.90;99.90;;;;;;5037012;28;20213;-89
2023/08/29 09:36:04;;;;;;;444.03;430.23;;;17.00;99.90;;;;;;5036564;28;20201;-89
2023/08/29 09:38:35;;;;;;;408.73;396.13;;;17.20;99.90;;;;;;5035667;28;20209;-89
2023/08/29 09:41:01;;;;;;;445.70;431.63;;;17.30;99.90;;;;;;5035543;28;20174;-91
2023/08/29 09:43:29;;;;;;;462.23;447.53;;;17.30;99.90;;;;;;5035997;28;20272;-89
2023/08/29 09:45:56;;;;;;;408.23;395.93;;;17.60;99.90;;;;;;5034890;28;20217;-88
2023/08/29 09:48:22;;;;;;;392.35;380.38;;;17.80;97.10;;;;;;5034121;28;20184;-89
2023/08/29 09:50:49;;;;;;;402.02;389.65;;;18.10;95.70;;;;;;5035897;28;20199;-90
2023/08/29 09:53:17;;;;;;;375.73;364.48;;;18.20;94.30;;;;;;5034965;28;20276;-90
2023/08/29 09:55:46;;;;;;;408.08;395.73;;;18.40;92.20;;;;;;5034788;28;20680;-90
2023/08/29 09:58:12;;;;;;;416.88;404.33;;;18.50;90.50;;;;;;5035003;28;20268;-90
2023/08/29 10:00:41;;;;;;;436.38;422.75;;;18.40;90.70;;;;;;5034600;28;20194;-89
2023/08/29 10:03:08;;;;;;;442.35;428.55;;;18.60;90.90;;;;;;5035401;28;20275;-90
2023/08/29 10:05:36;;;;;;;436.02;422.33;;;18.80;89.50;;;;;;5035630;28;20180;-90
2023/08/29 10:08:25;;;;;;;404.88;392.40;;;19.00;89.20;;;;;;5035983;28;20259;-89
2023/08/29 10:10:55;;;;;;;392.35;380.52;;;19.70;83.90;;;;;;5016909;28;20301;-89
2023/08/29 10:13:21;;;;;;;453.40;439.13;;;19.50;84.70;;;;;;5032206;28;20696;-90
2023/08/29 10:15:48;;;;;;;377.88;366.17;;;19.70;86.30;;;;;;5016283;28;20181;-90
2023/08/29 10:18:15;;;;;;;418.33;405.63;;;20.00;83.20;;;;;;5016343;28;20181;-89
2023/08/29 10:20:45;;;;;;;539.13;521.38;;;20.40;83.20;;;;;;5016880;28;20163;-89
2023/08/29 10:23:11;;;;;;;463.38;448.88;;;19.90;77.80;;;;;;5015828;28;20193;-90
2023/08/29 10:25:39;;;;;;;592.60;572.28;;;20.20;78.90;;;;;;5015997;28;20253;-90
2023/08/29 10:28:08;;;;;;;603.00;581.80;;;20.50;75.80;;;;;;5019956;28;20183;-88
2023/08/29 10:30:35;;;;;;;499.85;483.58;;;20.70;76.40;;;;;;5019727;28;20210;-90
2023/08/29 10:33:02;;;;;;;470.45;456.00;;;20.80;72.90;;;;;;5018879;28;20236;-91
2023/08/29 10:35:32;;;;;;;470.08;455.30;;;21.10;71.60;;;;;;5018393;28;20170;-90
2023/08/29 10:38:00;;;;;;;495.58;480.05;;;21.20;71.40;;;;;;5035557;28;20190;-90
2023/08/29 10:40:36;;;;;;;519.88;503.15;;;21.10;71.40;;;;;;5036362;28;20285;-89
2023/08/29 10:43:03;;;;;;;552.33;534.17;;;21.10;72.70;;;;;;5036204;28;20224;-89
2023/08/29 10:45:49;;;;;;;632.60;609.30;;;21.40;71.70;;;;;;5032689;28;20186;-89
2023/08/29 10:48:24;;;;;;;614.08;592.58;;;21.40;70.30;;;;;;5019774;28;20190;-90
2023/08/29 10:51:08;;;;;;;608.28;587.17;;;20.80;71.90;;;;;;5019541;28;20290;-90
2023/08/29 10:53:43;;;;;;;603.67;583.05;;;20.40;72.10;;;;;;5018966;28;20198;-90
2023/08/29 10:56:09;;;;;;;593.47;572.45;;;20.80;70.90;;;;;;5022004;28;20194;-90
2023/08/29 10:58:40;;;;;;;609.20;587.00;;;20.80;71.40;;;;;;5017785;28;20736;-89
2023/08/29 11:01:07;;;;;;;608.45;586.40;;;21.00;70.10;;;;;;5018986;28;20259;-92
2023/08/29 11:03:40;;;;;;;652.88;628.97;;;21.20;70.80;;;;;;5021290;28;20718;-90
2023/08/29 11:06:06;;;;;;;596.47;575.72;;;21.00;72.10;;;;;;5024961;28;20387;-91
2023/08/29 11:08:32;;;;;;;557.53;538.72;;;21.30;70.20;;;;;;5038843;28;20424;-90
2023/08/29 11:11:09;;;;;;;532.08;514.92;;;21.60;69.40;;;;;;5020476;28;20209;-90
2023/08/29 11:13:52;;;;;;;500.73;484.88;;;21.30;68.50;;;;;;5036112;28;20193;-90
2023/08/29 11:16:18;;;;;;;522.35;505.38;;;21.50;67.20;;;;;;5037565;28;20184;-90
2023/08/29 11:18:44;;;;;;;661.80;636.97;;;21.10;69.40;;;;;;5036656;28;20193;-90
2023/08/29 11:21:10;;;;;;;695.83;667.95;;;20.60;73.50;;;;;;5035776;28;20187;-91
2023/08/29 11:23:38;;;;;;;579.17;559.53;;;20.70;73.10;;;;;;5038409;28;20204;-93
2023/08/29 11:26:04;;;;;;;528.97;511.35;;;20.90;70.70;;;;;;5038473;28;20412;-90
2023/08/29 11:28:33;;;;;;;531.05;513.72;;;21.10;70.60;;;;;;5038715;28;20173;-91
2023/08/29 11:31:00;;;;;;;524.80;507.30;;;21.10;69.80;;;;;;5038984;28;20269;-90
2023/08/29 11:33:34;;;;;;;529.25;512.33;;;21.50;69.40;;;;;;5038573;28;20288;-92
2023/08/29 11:36:02;;;;;;;559.03;539.70;;;21.30;69.20;;;;;;5038478;28;20657;-91
2023/08/29 11:38:29;;;;;;;551.28;532.83;;;21.00;69.50;;;;;;5037029;28;20196;-91
2023/08/29 11:40:59;;;;;;;505.70;489.50;;;21.10;70.80;;;;;;5038545;28;20200;-91
2023/08/29 11:43:25;;;;;;;518.30;501.45;;;21.30;68.50;;;;;;5038331;28;20197;-91
2023/08/29 11:45:53;;;;;;;509.35;493.05;;;21.20;67.80;;;;;;5037864;28;20203;-91
2023/08/29 11:48:29;;;;;;;511.80;495.20;;;21.00;68.60;;;;;;5039316;28;20179;-90
2023/08/29 11:51:04;;;;;;;493.85;478.23;;;20.90;69.70;;;;;;5038145;28;20569;-91
2023/08/29 11:53:33;;;;;;;496.48;480.90;;;21.20;69.60;;;;;;5038191;28;20255;-92
2023/08/29 11:56:00;;;;;;;508.52;492.17;;;21.40;67.50;;;;;;5039100;28;20247;-91
2023/08/29 11:58:35;;;;;;;523.63;506.50;;;21.20;68.50;;;;;;5039342;28;20210;-88
2023/08/29 12:01:03;;;;;;;476.15;461.00;;;21.40;68.60;;;;;;5038250;28;20506;-91
2023/08/29 12:03:28;;;;;;;475.58;460.65;;;22.00;65.60;;;;;;5035574;28;20212;-89
2023/08/29 12:05:58;;;;;;;527.78;510.55;;;22.10;65.70;;;;;;5035459;28;20185;-91
2023/08/29 12:08:44;;;;;;;501.90;485.95;;;20.80;69.30;;;;;;5035868;28;20252;-91